Time;durP1;ratioP1;P1;durP2;ratioP2;P2;SDS_P1;SDS_P2;PMS_P1;PMS_P2;Temp;Humidity;BMP_temperature;BMP_pressure;BME280_temperature;BME280_humidity;BME280_pressure;Samples;Min_cycle;Max_cycle;Signal;HPM_P1;HPM_P2
2022/12/03 00:00:17;;;;;;;48.00;18.93;;;;;;;-2.32;100.00;101735.16;4999651;28;20197;-78
2022/12/03 00:02:43;;;;;;;40.17;17.50;;;;;;;-2.33;100.00;101741.06;4997972;28;20677;-77
2022/12/03 00:05:10;;;;;;;48.00;18.17;;;;;;;-2.39;100.00;101730.56;4995083;28;20198;-78
2022/12/03 00:07:37;;;;;;;48.50;20.07;;;;;;;-2.38;100.00;101724.66;4994900;28;20220;-77
2022/12/03 00:10:04;;;;;;;44.83;18.43;;;;;;;-2.40;100.00;101729.69;5001470;28;20693;-78
2022/12/03 00:12:31;;;;;;;45.53;19.37;;;;;;;-2.39;100.00;101723.78;4997789;28;20764;-77
2022/12/03 00:14:58;;;;;;;47.43;17.63;;;;;;;-2.40;100.00;101716.91;5002208;28;20292;-77
2022/12/03 00:17:25;;;;;;;38.67;17.80;;;;;;;-2.41;100.00;101727.97;4981608;28;20234;-77
2022/12/03 00:19:51;;;;;;;43.50;18.63;;;;;;;-2.37;100.00;101721.31;5005031;28;20748;-76
2022/12/03 00:22:18;;;;;;;42.47;18.43;;;;;;;-2.36;100.00;101720.47;4995841;28;20205;-77
2022/12/03 00:24:46;;;;;;;39.77;17.33;;;;;;;-2.39;100.00;101721.22;5001442;28;20208;-76
2022/12/03 00:27:13;;;;;;;44.47;17.53;;;;;;;-2.43;100.00;101727.00;4985481;28;20209;-78
2022/12/03 00:29:39;;;;;;;43.90;17.23;;;;;;;-2.41;100.00;101733.06;4985370;28;20295;-77
2022/12/03 00:32:07;;;;;;;41.30;16.90;;;;;;;-2.40;100.00;101727.13;4979377;28;20201;-76
2022/12/03 00:34:34;;;;;;;39.67;17.87;;;;;;;-2.42;100.00;101730.44;5003324;28;20209;-79
2022/12/03 00:37:00;;;;;;;38.77;15.13;;;;;;;-2.42;100.00;101710.88;4984383;28;20239;-76
2022/12/03 00:39:27;;;;;;;41.07;15.27;;;;;;;-2.39;100.00;101717.78;4986662;28;20308;-77
2022/12/03 00:41:53;;;;;;;35.67;14.77;;;;;;;-2.43;100.00;101726.13;4998382;28;20212;-77
2022/12/03 00:44:20;;;;;;;35.17;15.00;;;;;;;-2.45;100.00;101720.06;5000673;28;20543;-79
2022/12/03 00:46:46;;;;;;;31.07;13.63;;;;;;;-2.44;100.00;101719.28;5002372;28;20245;-77
2022/12/03 00:49:14;;;;;;;32.70;15.37;;;;;;;-2.45;100.00;101726.06;4997642;28;20228;-77
2022/12/03 00:51:40;;;;;;;36.67;15.17;;;;;;;-2.42;100.00;101717.66;4999475;28;20205;-77
2022/12/03 00:54:07;;;;;;;29.63;14.43;;;;;;;-2.43;100.00;101718.47;4999541;28;20209;-77
2022/12/03 00:56:34;;;;;;;34.47;13.83;;;;;;;-2.42;100.00;101715.97;5004814;28;20207;-77
2022/12/03 00:59:00;;;;;;;40.27;16.23;;;;;;;-2.40;100.00;101716.91;5002362;28;20225;-74
2022/12/03 01:01:27;;;;;;;37.60;15.23;;;;;;;-2.44;100.00;101711.63;4982637;28;20208;-75
2022/12/03 01:03:53;;;;;;;44.10;17.30;;;;;;;-2.43;100.00;101723.56;4997954;28;20199;-74
2022/12/03 01:06:21;;;;;;;38.63;16.30;;;;;;;-2.40;100.00;101710.94;5002013;28;20197;-74
2022/12/03 01:08:48;;;;;;;26.93;13.23;;;;;;;-2.44;100.00;101715.03;5004228;28;20231;-74
2022/12/03 01:13:55;;;;;;;31.47;14.50;;;;;;;-2.39;100.00;101720.34;4996379;28;20469;-75
2022/12/03 01:16:21;;;;;;;34.90;14.77;;;;;;;-2.41;100.00;101716.84;4981373;28;20210;-76
2022/12/03 01:18:51;;;;;;;33.93;14.80;;;;;;;-2.40;100.00;101722.03;5003091;28;20235;-75
2022/12/03 01:21:17;;;;;;;38.97;15.73;;;;;;;-2.40;100.00;101721.16;5001963;28;20208;-75
2022/12/03 01:23:45;;;;;;;39.53;16.83;;;;;;;-2.41;100.00;101730.50;4999552;28;20527;-75
2022/12/03 01:26:11;;;;;;;39.33;16.47;;;;;;;-2.41;100.00;101727.97;5001972;28;20649;-75
2022/12/03 01:28:38;;;;;;;36.00;16.53;;;;;;;-2.42;100.00;101727.88;4984163;28;20228;-75
2022/12/03 01:33:49;;;;;;;45.67;19.07;;;;;;;-2.45;100.00;101726.06;5003489;28;20558;-77
2022/12/03 01:36:16;;;;;;;40.30;17.73;;;;;;;-2.47;100.00;101715.75;5000547;28;20205;-76
2022/12/03 01:38:45;;;;;;;57.13;21.53;;;;;;;-2.47;100.00;101720.88;5001075;28;20232;-75
2022/12/03 01:41:12;;;;;;;50.27;19.50;;;;;;;-2.49;100.00;101716.50;4989828;28;20292;-75
2022/12/03 01:43:38;;;;;;;48.93;19.67;;;;;;;-2.47;100.00;101718.31;4984730;28;20200;-75
2022/12/03 01:46:05;;;;;;;47.03;19.83;;;;;;;-2.53;100.00;101712.09;4987407;28;20208;-75
2022/12/03 01:48:35;;;;;;;47.33;20.00;;;;;;;-2.54;100.00;101716.28;5005348;28;20609;-75
2022/12/03 01:51:01;;;;;;;45.80;19.27;;;;;;;-2.55;100.00;101708.56;5000865;28;20347;-75
2022/12/03 01:53:28;;;;;;;46.73;19.53;;;;;;;-2.58;100.00;101708.44;5003674;28;20223;-75
2022/12/03 01:55:56;;;;;;;44.77;18.50;;;;;;;-2.58;100.00;101708.44;5001570;28;20653;-75
2022/12/03 01:58:26;;;;;;;43.37;17.37;;;;;;;-2.60;100.00;101707.47;5004553;28;20221;-76
2022/12/03 02:00:52;;;;;;;49.63;19.07;;;;;;;-2.64;100.00;101698.81;5000129;28;20307;-75
2022/12/03 02:03:22;;;;;;;53.13;20.17;;;;;;;-2.61;100.00;101703.19;5016729;28;20677;-77
2022/12/03 02:05:49;;;;;;;47.87;19.30;;;;;;;-2.65;100.00;101702.19;4982686;28;20209;-75
2022/12/03 02:08:30;;;;;;;49.43;17.70;;;;;;;-2.63;100.00;101694.59;5004769;28;20308;-75
2022/12/03 02:11:00;;;;;;;48.40;19.27;;;;;;;-2.64;100.00;101697.94;4985804;28;20214;-76
2022/12/03 02:13:28;;;;;;;43.23;19.33;;;;;;;-2.59;100.00;101696.47;5001502;28;20212;-75
2022/12/03 02:15:56;;;;;;;46.20;20.53;;;;;;;-2.62;100.00;101698.88;4986320;28;20208;-77
2022/12/03 02:18:23;;;;;;;46.23;19.10;;;;;;;-2.65;100.00;101688.56;5003192;28;20224;-75
2022/12/03 02:20:57;;;;;;;48.20;18.23;;;;;;;-2.66;100.00;101697.88;5001988;28;20243;-75
2022/12/03 02:23:30;;;;;;;47.03;19.23;;;;;;;-2.61;100.00;101698.97;4979210;28;20288;-76
2022/12/03 02:25:57;;;;;;;49.83;20.67;;;;;;;-2.62;100.00;101694.69;5004856;28;20204;-75
2022/12/03 02:28:24;;;;;;;51.03;19.93;;;;;;;-2.65;100.00;101691.97;4986561;28;20228;-75
2022/12/03 02:30:50;;;;;;;55.70;20.80;;;;;;;-2.68;100.00;101697.81;5001725;28;20325;-75
2022/12/03 02:33:17;;;;;;;41.13;19.67;;;;;;;-2.69;100.00;101690.97;5002328;28;20224;-75
2022/12/03 02:35:44;;;;;;;48.60;19.50;;;;;;;-2.66;100.00;101695.31;5001477;28;20206;-75
2022/12/03 02:38:15;;;;;;;59.67;19.87;;;;;;;-2.63;100.00;101692.03;4998024;28;20221;-76
2022/12/03 02:40:43;;;;;;;56.17;22.17;;;;;;;-2.68;100.00;101695.25;5002989;28;20211;-77
2022/12/03 02:43:14;;;;;;;40.17;18.60;;;;;;;-2.69;100.00;101692.63;4998899;28;20204;-77
2022/12/03 02:45:43;;;;;;;55.63;21.33;;;;;;;-2.75;100.00;101697.47;5007490;28;20214;-77
2022/12/03 02:48:13;;;;;;;45.00;18.07;;;;;;;-2.75;100.00;101697.47;5003041;28;20225;-76
2022/12/03 02:50:44;;;;;;;51.30;19.20;;;;;;;-2.74;100.00;101694.97;4999429;28;20197;-76
2022/12/03 02:53:14;;;;;;;51.07;20.20;;;;;;;-2.78;100.00;101695.66;5003210;28;20224;-76
2022/12/03 02:55:42;;;;;;;48.47;19.03;;;;;;;-2.80;100.00;101697.25;5077591;28;20276;-77
2022/12/03 02:58:11;;;;;;;49.80;18.53;;;;;;;-2.80;100.00;101686.16;5002196;28;20612;-76
2022/12/03 03:00:38;;;;;;;52.23;18.37;;;;;;;-2.76;100.00;101695.69;5001680;28;20194;-76
2022/12/03 03:03:08;;;;;;;51.60;19.27;;;;;;;-2.80;100.00;101691.28;4983794;28;20216;-77
2022/12/03 03:05:36;;;;;;;46.37;20.40;;;;;;;-2.82;100.00;101691.19;4998799;28;20205;-76
2022/12/03 03:08:04;;;;;;;49.20;19.93;;;;;;;-2.83;100.00;101697.13;5000922;28;20590;-78
2022/12/03 03:10:33;;;;;;;49.10;17.77;;;;;;;-2.86;100.00;101696.97;5000461;28;20211;-77
2022/12/03 03:12:59;;;;;;;49.90;18.87;;;;;;;-2.84;100.00;101697.91;4981825;28;20216;-76
2022/12/03 03:15:27;;;;;;;42.60;19.30;;;;;;;-2.84;100.00;101690.25;4980712;28;20196;-76
2022/12/03 03:17:54;;;;;;;50.00;19.13;;;;;;;-2.87;100.00;101695.22;4984215;28;20256;-76
2022/12/03 03:20:21;;;;;;;49.30;17.03;;;;;;;-2.89;100.00;101687.50;5003595;28;20205;-76
2022/12/03 03:22:48;;;;;;;43.20;18.40;;;;;;;-2.90;100.00;101693.41;4987117;28;20209;-76
2022/12/03 03:25:17;;;;;;;50.47;19.67;;;;;;;-2.90;100.00;101692.56;4981120;28;20287;-76
2022/12/03 03:27:45;;;;;;;44.00;18.63;;;;;;;-2.91;100.00;101693.34;5005441;28;20232;-76
2022/12/03 03:30:13;;;;;;;50.93;18.57;;;;;;;-2.91;100.00;101681.44;5004347;28;20743;-76
2022/12/03 03:32:42;;;;;;;49.07;17.10;;;;;;;-2.94;100.00;101683.84;4978344;28;20209;-76
2022/12/03 03:35:10;;;;;;;40.43;18.13;;;;;;;-2.92;100.00;101684.81;5004457;28;20223;-76
2022/12/03 03:37:38;;;;;;;39.67;16.27;;;;;;;-2.95;100.00;101676.16;4978432;28;20325;-77
2022/12/03 03:40:06;;;;;;;34.13;14.37;;;;;;;-3.00;100.00;101685.28;4997847;28;20202;-76
2022/12/03 03:42:32;;;;;;;34.23;14.10;;;;;;;-2.98;100.00;101683.66;5001468;28;20224;-76
2022/12/03 03:44:59;;;;;;;33.07;15.73;;;;;;;-2.97;100.00;101683.72;5002717;28;20548;-76
2022/12/03 03:47:25;;;;;;;39.27;15.57;;;;;;;-2.99;100.00;101685.34;4999894;28;20652;-78
2022/12/03 03:49:54;;;;;;;31.93;14.97;;;;;;;-2.98;100.00;101683.66;5003189;28;20712;-76
2022/12/03 03:52:22;;;;;;;36.93;16.53;;;;;;;-2.99;100.00;101684.44;5064462;28;20202;-76
2022/12/03 03:54:48;;;;;;;35.57;15.60;;;;;;;-2.98;100.00;101687.06;5001118;28;20570;-77
2022/12/03 03:57:15;;;;;;;33.60;15.10;;;;;;;-2.98;100.00;101686.22;4980649;28;20215;-76
2022/12/03 03:59:42;;;;;;;39.60;16.17;;;;;;;-2.96;100.00;101684.59;5066926;28;20201;-76
2022/12/03 04:02:17;;;;;;;36.40;14.27;;;;;;;-2.98;100.00;101686.22;4998499;28;20212;-77
2022/12/03 04:04:44;;;;;;;33.93;14.87;;;;;;;-2.99;100.00;101687.00;4997491;28;20196;-76
2022/12/03 04:07:11;;;;;;;35.10;15.07;;;;;;;-2.97;100.00;101675.19;4996399;28;20545;-76
2022/12/03 04:09:38;;;;;;;29.03;14.17;;;;;;;-2.95;100.00;101687.22;4975493;28;20614;-76
2022/12/03 04:14:48;;;;;;;37.60;15.20;;;;;;;-3.00;100.00;101672.50;4986265;28;20224;-76
2022/12/03 04:17:15;;;;;;;35.90;15.13;;;;;;;-2.99;100.00;101675.13;5003999;28;20202;-76
2022/12/03 04:19:41;;;;;;;31.97;15.07;;;;;;;-3.00;100.00;101670.81;5002280;28;20691;-78
2022/12/03 04:28:47;;;;;;;32.63;13.53;;;;;;;-3.00;100.00;101670.81;4987915;28;20197;-76
2022/12/03 04:30:24;;;;;;;34.93;13.97;;;;;;;-2.98;100.00;101665.78;5010627;23;20243;-70
2022/12/03 04:35:44;;;;;;;32.70;13.30;;;;;;;-3.01;100.00;101666.50;4996552;28;20593;-71
2022/12/03 04:38:10;;;;;;;31.27;13.73;;;;;;;-3.01;100.00;101663.09;4989902;28;20723;-70
2022/12/03 04:43:22;;;;;;;32.27;13.07;;;;;;;-3.07;100.00;101662.00;4993045;28;20687;-72
2022/12/03 04:45:49;;;;;;;30.20;13.70;;;;;;;-3.07;100.00;101658.59;4996522;28;20197;-72
2022/12/03 04:48:15;;;;;;;37.20;14.87;;;;;;;-3.07;100.00;101659.47;4992155;28;20205;-72
2022/12/03 04:50:41;;;;;;;32.90;14.20;;;;;;;-3.05;100.00;101656.97;4991044;28;20216;-72
2022/12/03 04:53:08;;;;;;;38.33;15.43;;;;;;;-3.06;100.00;101658.66;4994433;28;20205;-71
2022/12/03 04:55:34;;;;;;;32.90;14.03;;;;;;;-3.06;100.00;101656.13;4970215;28;20803;-72
2022/12/03 04:58:02;;;;;;;32.07;15.23;;;;;;;-3.10;100.00;101658.44;4995754;28;20203;-71
2022/12/03 05:00:29;;;;;;;34.90;15.03;;;;;;;-3.10;100.00;101656.75;4988940;28;20432;-72
2022/12/03 05:02:55;;;;;;;36.57;13.30;;;;;;;-3.12;100.00;101654.94;4991157;28;20574;-72
2022/12/03 05:05:21;;;;;;;34.97;14.53;;;;;;;-3.14;100.00;101654.00;4995570;28;20285;-72
2022/12/03 05:07:48;;;;;;;35.73;14.30;;;;;;;-3.15;100.00;101648.03;4995020;28;20201;-72
2022/12/03 05:10:14;;;;;;;33.10;14.33;;;;;;;-3.17;100.00;101648.75;4998130;28;20699;-72
2022/12/03 05:12:40;;;;;;;29.93;12.93;;;;;;;-3.16;100.00;101642.88;4998883;28;20292;-71
2022/12/03 05:15:09;;;;;;;32.57;14.57;;;;;;;-3.16;100.00;101645.41;4992253;28;20224;-71
2022/12/03 05:17:35;;;;;;;32.73;14.03;;;;;;;-3.17;100.00;101647.06;4993928;28;20648;-72
2022/12/03 05:22:54;;;;;;;25.83;12.50;;;;;;;-3.18;100.00;101639.34;4958720;28;20217;-72
2022/12/03 05:25:20;;;;;;;34.20;13.93;;;;;;;-3.17;100.00;101641.09;4993024;28;20479;-71
2022/12/03 05:27:47;;;;;;;26.90;13.53;;;;;;;-3.14;100.00;101637.03;4993410;28;20208;-72
2022/12/03 05:30:15;;;;;;;34.87;14.43;;;;;;;-3.16;100.00;101636.09;4998054;28;20224;-71
2022/12/03 05:32:41;;;;;;;34.33;15.30;;;;;;;-3.19;100.00;101633.38;4993548;28;20193;-71
2022/12/03 05:35:09;;;;;;;34.70;14.87;;;;;;;-3.19;100.00;101629.97;4988408;28;20649;-71
2022/12/03 05:37:35;;;;;;;38.80;15.07;;;;;;;-3.15;100.00;101629.28;4975923;28;20201;-72
2022/12/03 05:40:02;;;;;;;35.20;14.00;;;;;;;-3.17;100.00;101628.34;4988124;28;22039;-71
2022/12/03 05:45:12;;;;;;;33.67;14.43;;;;;;;-3.13;100.00;101627.69;4994964;28;20192;-71
2022/12/03 05:47:40;;;;;;;32.97;15.67;;;;;;;-3.15;100.00;101626.75;4972219;28;20215;-72
2022/12/03 05:50:07;;;;;;;32.33;13.93;;;;;;;-3.20;100.00;101631.66;4995653;28;20251;-71
2022/12/03 05:52:34;;;;;;;38.93;15.17;;;;;;;-3.15;100.00;101627.63;5001878;28;20215;-71
2022/12/03 05:55:00;;;;;;;43.37;16.70;;;;;;;-3.16;100.00;101625.00;5003811;28;20232;-71
2022/12/03 05:57:28;;;;;;;34.90;14.67;;;;;;;-3.18;100.00;101621.50;4988101;28;20209;-72
2022/12/03 05:59:54;;;;;;;30.03;13.57;;;;;;;-3.20;100.00;101623.09;4990863;28;20665;-71
2022/12/03 06:02:21;;;;;;;33.20;15.37;;;;;;;-3.18;100.00;101626.59;4996496;28;20201;-71
2022/12/03 06:04:49;;;;;;;32.73;14.97;;;;;;;-3.17;100.00;101633.44;4992548;28;20211;-72
2022/12/03 06:07:15;;;;;;;27.10;14.10;;;;;;;-3.17;100.00;101630.91;4992514;28;20204;-71
2022/12/03 06:09:41;;;;;;;31.93;14.37;;;;;;;-3.16;100.00;101619.91;4991852;28;20200;-71
2022/12/03 06:12:08;;;;;;;44.27;15.57;;;;;;;-3.16;100.00;101630.97;4992890;28;20616;-72
2022/12/03 06:14:36;;;;;;;36.93;14.70;;;;;;;-3.14;100.00;101628.50;4995463;28;20221;-71
2022/12/03 06:17:03;;;;;;;33.73;14.67;;;;;;;-3.14;100.00;101625.94;4978823;28;20209;-72
2022/12/03 06:19:30;;;;;;;31.70;16.13;;;;;;;-3.12;100.00;101626.88;4992042;28;20220;-72
2022/12/03 06:21:57;;;;;;;32.93;13.67;;;;;;;-3.15;100.00;101627.63;4991020;28;20240;-72
2022/12/03 06:24:24;;;;;;;38.37;13.57;;;;;;;-3.15;100.00;101630.19;5002553;28;20656;-72
2022/12/03 06:26:50;;;;;;;37.40;14.50;;;;;;;-3.14;100.00;101629.38;4991113;28;20687;-72
2022/12/03 06:29:17;;;;;;;40.40;15.13;;;;;;;-3.13;100.00;101636.22;4988526;28;20212;-72
2022/12/03 06:31:43;;;;;;;33.43;14.93;;;;;;;-3.14;100.00;101633.59;4989886;28;20224;-72
2022/12/03 06:34:09;;;;;;;36.03;15.27;;;;;;;-3.14;100.00;101638.72;4988571;28;20651;-72
2022/12/03 06:36:36;;;;;;;42.37;14.83;;;;;;;-3.14;100.00;101641.25;4991227;28;20327;-72
2022/12/03 06:39:03;;;;;;;35.17;14.67;;;;;;;-3.12;100.00;101639.66;4992758;28;20316;-72
2022/12/03 06:41:30;;;;;;;30.90;13.77;;;;;;;-3.11;100.00;101641.41;4990903;28;20224;-72
2022/12/03 06:43:56;;;;;;;34.67;15.30;;;;;;;-3.11;100.00;101642.28;4994316;28;20208;-71
2022/12/03 06:46:22;;;;;;;33.73;15.53;;;;;;;-3.09;100.00;101639.78;4998195;28;20192;-72
2022/12/03 06:48:49;;;;;;;36.70;14.27;;;;;;;-3.09;100.00;101637.25;4991252;28;20316;-72
2022/12/03 06:51:15;;;;;;;36.00;15.13;;;;;;;-3.11;100.00;101643.97;4996302;28;20701;-72
2022/12/03 06:53:42;;;;;;;39.23;13.80;;;;;;;-3.09;100.00;101644.91;4978979;28;21026;-72
2022/12/03 06:56:09;;;;;;;32.10;14.00;;;;;;;-3.11;100.00;101647.38;4987890;28;20224;-71
2022/12/03 06:58:36;;;;;;;34.13;14.60;;;;;;;-3.10;100.00;101640.59;4999914;28;20209;-72
2022/12/03 07:01:02;;;;;;;36.37;14.57;;;;;;;-3.10;100.00;101638.03;4980633;28;20212;-71
2022/12/03 07:03:28;;;;;;;34.43;15.30;;;;;;;-3.08;100.00;101634.75;4991543;28;20199;-72
2022/12/03 07:05:55;;;;;;;32.70;13.80;;;;;;;-3.06;100.00;101634.81;4993711;28;20204;-72
2022/12/03 07:08:21;;;;;;;33.17;15.17;;;;;;;-3.05;100.00;101637.44;4993933;28;20228;-72
2022/12/03 07:10:48;;;;;;;35.33;15.43;;;;;;;-3.03;100.00;101629.84;4986533;28;20668;-72
2022/12/03 07:13:15;;;;;;;30.07;13.57;;;;;;;-3.01;100.00;101637.56;4998144;28;20220;-72
2022/12/03 07:15:42;;;;;;;30.73;14.43;;;;;;;-3.06;100.00;101635.69;4994717;28;20217;-72
2022/12/03 07:18:08;;;;;;;33.43;14.77;;;;;;;-3.03;100.00;101636.63;4992609;28;20193;-72
2022/12/03 07:20:35;;;;;;;35.77;14.73;;;;;;;-3.00;100.00;101642.75;4994338;28;20221;-72
2022/12/03 07:23:01;;;;;;;34.93;13.93;;;;;;;-3.01;100.00;101642.69;4997640;28;20206;-72
2022/12/03 07:25:27;;;;;;;35.63;13.73;;;;;;;-2.99;100.00;101638.50;4993783;28;20615;-72
2022/12/03 07:27:54;;;;;;;32.93;13.67;;;;;;;-2.98;100.00;101638.59;4995924;28;20668;-72
2022/12/03 07:30:23;;;;;;;32.50;13.80;;;;;;;-3.02;100.00;101634.16;4992530;28;20240;-72
2022/12/03 07:32:49;;;;;;;27.37;13.37;;;;;;;-3.01;100.00;101633.34;4975150;28;20216;-72
2022/12/03 07:35:16;;;;;;;29.57;13.10;;;;;;;-3.00;100.00;101636.78;4995767;28;20217;-72
2022/12/03 07:37:42;;;;;;;34.70;14.57;;;;;;;-3.01;100.00;101635.88;4992130;28;20193;-72
2022/12/03 07:40:10;;;;;;;29.93;14.07;;;;;;;-3.01;100.00;101625.69;4994188;28;20311;-72
2022/12/03 07:42:36;;;;;;;35.70;15.37;;;;;;;-2.99;100.00;101633.41;4993378;28;20859;-72
2022/12/03 07:45:03;;;;;;;33.87;13.70;;;;;;;-2.95;100.00;101620.88;4997576;28;20200;-71
2022/12/03 07:47:31;;;;;;;33.50;14.87;;;;;;;-2.96;100.00;101624.22;4995389;28;21810;-72
2022/12/03 07:49:57;;;;;;;32.60;13.20;;;;;;;-2.95;100.00;101633.63;4992778;28;20204;-72
2022/12/03 07:52:23;;;;;;;31.60;13.50;;;;;;;-2.90;100.00;101629.59;4976581;28;20209;-71
2022/12/03 07:54:50;;;;;;;29.80;13.00;;;;;;;-2.88;100.00;101629.69;4994147;28;20213;-72
2022/12/03 07:57:16;;;;;;;33.27;12.37;;;;;;;-2.88;100.00;101616.91;4976753;28;20310;-71
2022/12/03 07:59:42;;;;;;;31.47;13.67;;;;;;;-2.91;100.00;101621.88;4997659;28;20200;-71
2022/12/03 08:02:10;;;;;;;31.93;13.40;;;;;;;-2.89;100.00;101621.13;4974267;28;20209;-71
2022/12/03 08:04:38;;;;;;;34.47;13.50;;;;;;;-2.87;100.00;101626.31;4997315;28;20218;-71
2022/12/03 08:07:04;;;;;;;28.13;13.03;;;;;;;-2.90;100.00;101624.50;4993702;28;20781;-72
2022/12/03 08:09:31;;;;;;;29.13;13.27;;;;;;;-2.87;100.00;101628.84;4992577;28;20676;-72
2022/12/03 08:12:00;;;;;;;31.90;13.83;;;;;;;-2.87;100.00;101627.19;4990881;28;20223;-72
2022/12/03 08:14:27;;;;;;;36.40;14.17;;;;;;;-2.82;100.00;101617.19;4992784;28;20749;-72
2022/12/03 08:16:54;;;;;;;28.23;13.60;;;;;;;-2.87;100.00;101629.75;4989227;28;20767;-72
2022/12/03 08:19:20;;;;;;;32.03;13.13;;;;;;;-2.87;100.00;101621.19;4993236;28;20201;-72
2022/12/03 08:21:48;;;;;;;32.40;13.43;;;;;;;-2.84;100.00;101616.25;4998897;28;20251;-72
2022/12/03 08:24:16;;;;;;;29.97;14.33;;;;;;;-2.82;100.00;101621.41;4978097;28;20661;-72
2022/12/03 08:26:44;;;;;;;29.87;12.87;;;;;;;-2.82;100.00;101617.19;4994507;28;20270;-72
2022/12/03 08:29:12;;;;;;;35.03;13.10;;;;;;;-2.79;100.00;101619.88;4994278;28;20209;-72
2022/12/03 08:31:40;;;;;;;26.70;13.13;;;;;;;-2.76;100.00;101614.91;4992941;28;20215;-72
2022/12/03 08:34:17;;;;;;;28.53;12.77;;;;;;;-2.76;100.00;101611.47;4994303;28;20762;-71
2022/12/03 08:36:44;;;;;;;28.67;12.60;;;;;;;-2.79;100.00;101614.75;5000624;28;20589;-71
2022/12/03 08:39:27;;;;;;;26.47;12.27;;;;;;;-2.81;100.00;101608.72;4976333;28;20211;-71
2022/12/03 08:44:42;;;;;;;27.10;12.33;;;;;;;-2.78;100.00;101613.06;4987977;28;20206;-72
2022/12/03 08:47:16;;;;;;;26.70;13.13;;;;;;;-2.69;100.00;101605.81;4988736;28;20201;-72
2022/12/03 08:49:47;;;;;;;26.20;12.00;;;;;;;-2.64;100.00;101611.13;5008313;28;20208;-72
2022/12/03 08:52:16;;;;;;;30.87;13.00;;;;;;;-2.70;100.00;101611.75;4989138;28;20580;-72
2022/12/03 08:54:50;;;;;;;26.57;13.13;;;;;;;-2.71;100.00;101602.31;4992412;28;20292;-72
2022/12/03 08:57:26;;;;;;;32.27;13.10;;;;;;;-2.70;100.00;101604.09;4999174;28;20212;-71
2022/12/03 08:59:55;;;;;;;33.10;13.10;;;;;;;-2.70;100.00;101611.75;4976467;28;20212;-72
2022/12/03 09:02:28;;;;;;;28.10;12.73;;;;;;;-2.70;100.00;101604.09;4991026;28;20224;-72
2022/12/03 09:04:55;;;;;;;30.83;13.17;;;;;;;-2.70;100.00;101598.97;5007521;28;20201;-72
2022/12/03 09:07:21;;;;;;;34.83;14.53;;;;;;;-2.68;100.00;101605.03;4994738;28;20216;-72
2022/12/03 09:09:49;;;;;;;29.70;13.27;;;;;;;-2.65;100.00;101604.28;4975503;28;20212;-71
2022/12/03 09:12:15;;;;;;;30.30;13.00;;;;;;;-2.68;100.00;101607.56;4993798;28;20643;-71
2022/12/03 09:14:41;;;;;;;28.17;12.43;;;;;;;-2.61;100.00;101601.91;4993278;28;20197;-71
2022/12/03 09:17:08;;;;;;;27.47;11.87;;;;;;;-2.62;100.00;101599.28;4990187;28;20720;-72
2022/12/03 09:19:34;;;;;;;22.97;11.70;;;;;;;-2.62;100.00;101597.63;4975061;28;20242;-71
2022/12/03 09:22:05;;;;;;;26.10;13.20;;;;;;;-2.60;100.00;101590.91;4987491;28;20495;-72
2022/12/03 09:24:31;;;;;;;28.63;12.27;;;;;;;-2.56;100.00;101586.81;4995223;28;20197;-72
2022/12/03 09:26:59;;;;;;;25.90;12.30;;;;;;;-2.60;100.00;101595.13;4976086;28;20211;-72
2022/12/03 09:29:26;;;;;;;27.20;12.90;;;;;;;-2.55;100.00;101586.88;4990378;28;20209;-72
2022/12/03 09:31:52;;;;;;;24.13;11.17;;;;;;;-2.49;100.00;101592.22;4989600;28;20270;-72
2022/12/03 09:34:18;;;;;;;27.57;12.53;;;;;;;-2.50;100.00;101584.50;4994442;28;20205;-72
2022/12/03 09:36:45;;;;;;;31.13;13.03;;;;;;;-2.48;100.00;101593.09;4994247;28;20216;-72
2022/12/03 09:39:11;;;;;;;31.47;13.47;;;;;;;-2.45;100.00;101590.69;4993384;28;20193;-72
2022/12/03 09:41:38;;;;;;;24.37;12.13;;;;;;;-2.44;100.00;101586.47;4992844;28;20223;-72
2022/12/03 09:44:08;;;;;;;31.33;14.30;;;;;;;-2.41;100.00;101589.13;4991343;28;20713;-72
2022/12/03 09:46:36;;;;;;;25.93;12.60;;;;;;;-2.34;100.00;101581.81;4994948;28;20209;-72
2022/12/03 09:49:05;;;;;;;26.40;12.70;;;;;;;-2.34;100.00;101589.47;4994159;28;20205;-72
2022/12/03 09:51:34;;;;;;;25.93;12.23;;;;;;;-2.33;100.00;101593.75;4990721;28;20658;-71
2022/12/03 09:54:01;;;;;;;23.53;12.03;;;;;;;-2.35;100.00;101599.63;4995800;28;20881;-71
2022/12/03 09:56:27;;;;;;;31.07;13.77;;;;;;;-2.32;100.00;101594.66;4992506;28;20220;-72
2022/12/03 09:58:54;;;;;;;23.70;12.57;;;;;;;-2.35;100.00;101587.72;4996849;28;20215;-72
2022/12/03 10:01:22;;;;;;;24.90;11.93;;;;;;;-2.30;100.00;101591.34;4979820;28;20252;-72
2022/12/03 10:03:50;;;;;;;28.33;13.23;;;;;;;-2.29;100.00;101593.09;4991583;28;20286;-72
2022/12/03 10:06:20;;;;;;;25.50;12.60;;;;;;;-2.26;100.00;101583.81;4992427;28;20193;-72
2022/12/03 10:08:49;;;;;;;28.50;12.73;;;;;;;-2.22;100.00;101581.41;4978608;28;20238;-72
2022/12/03 10:11:16;;;;;;;26.90;12.43;;;;;;;-2.21;100.00;101583.19;4995323;28;20715;-72
2022/12/03 10:13:43;;;;;;;29.37;11.77;;;;;;;-2.22;100.00;101585.66;4993288;28;20279;-72
2022/12/03 10:16:14;;;;;;;27.50;12.40;;;;;;;-2.17;100.00;101586.72;4995041;28;20554;-72
2022/12/03 10:18:46;;;;;;;31.73;13.30;;;;;;;-2.14;100.00;101581.75;4994002;28;20253;-72
2022/12/03 10:21:17;;;;;;;25.73;11.87;;;;;;;-2.15;100.00;101580.84;4992013;28;20235;-72
2022/12/03 10:23:45;;;;;;;27.63;12.93;;;;;;;-2.11;100.00;101584.41;4993448;28;20216;-72
2022/12/03 10:26:12;;;;;;;24.13;12.17;;;;;;;-2.07;100.00;101575.22;4990091;28;20292;-71
2022/12/03 10:28:40;;;;;;;26.60;12.67;;;;;;;-2.06;100.00;101575.25;4994100;28;20665;-72
2022/12/03 10:31:09;;;;;;;30.70;15.00;;;;;;;-2.04;100.00;101576.22;4993816;28;20219;-72
2022/12/03 10:33:38;;;;;;;29.57;14.67;;;;;;;-2.04;100.00;101570.19;4991331;28;20198;-72
2022/12/03 10:36:22;;;;;;;31.73;13.87;;;;;;;-2.02;100.00;101561.81;4977889;28;20948;-72
2022/12/03 10:39:07;;;;;;;25.33;12.30;;;;;;;-2.05;100.00;101556.56;4993381;28;20668;-72
2022/12/03 10:41:33;;;;;;;33.30;12.33;;;;;;;-2.02;100.00;101556.69;4992970;28;20235;-71
2022/12/03 10:44:12;;;;;;;28.93;13.37;;;;;;;-1.95;100.00;101548.44;5006830;23;20642;-72
2022/12/03 10:46:38;;;;;;;37.50;16.17;;;;;;;-1.94;100.00;101544.19;4992077;28;20224;-73
2022/12/03 10:49:10;;;;;;;34.37;15.67;;;;;;;-1.94;100.00;101539.94;4994689;28;20769;-72
2022/12/03 10:51:39;;;;;;;31.50;12.47;;;;;;;-1.94;100.00;101545.06;4992227;28;20270;-72
2022/12/03 10:54:16;;;;;;;30.20;13.47;;;;;;;-1.90;100.00;101553.72;5082413;28;20636;-72
2022/12/03 10:56:43;;;;;;;36.27;16.40;;;;;;;-1.87;100.00;101546.19;5090835;28;20227;-71
2022/12/03 10:59:14;;;;;;;29.70;12.50;;;;;;;-1.88;100.00;101541.91;5092619;28;20201;-73
2022/12/03 11:01:41;;;;;;;27.90;13.17;;;;;;;-1.83;100.00;101542.97;5094246;28;20601;-73
2022/12/03 11:04:17;;;;;;;32.40;14.97;;;;;;;-1.77;100.00;101540.63;5090663;28;20682;-72
2022/12/03 11:06:45;;;;;;;35.27;17.80;;;;;;;-1.78;100.00;101546.53;5091607;28;20574;-73
2022/12/03 11:09:18;;;;;;;37.10;16.33;;;;;;;-1.77;100.00;101544.88;5094386;28;20213;-72
2022/12/03 11:11:44;;;;;;;29.80;13.47;;;;;;;-1.74;100.00;101539.88;5069511;28;20247;-71
2022/12/03 11:14:11;;;;;;;29.17;15.40;;;;;;;-1.74;100.00;101534.78;5093425;28;20605;-73
2022/12/03 11:17:08;;;;;;;30.80;15.53;;;;;;;-1.72;100.00;101538.25;5093255;28;20232;-73
2022/12/03 11:19:47;;;;;;;32.90;14.00;;;;;;;-1.80;100.00;101530.28;5099770;28;20201;-73
2022/12/03 11:22:25;;;;;;;35.00;13.97;;;;;;;-1.76;100.00;101533.81;5095488;28;20760;-72
2022/12/03 11:25:21;;;;;;;32.20;13.73;;;;;;;-1.80;100.00;101530.28;5076780;28;20270;-73
2022/12/03 11:28:31;;;;;;;40.10;14.30;;;;;;;-1.86;100.00;101524.94;5075191;28;20212;-73
2022/12/03 11:31:00;;;;;;;29.50;14.77;;;;;;;-1.82;100.00;101520.81;5091763;28;20208;-73
2022/12/03 11:33:30;;;;;;;28.77;13.00;;;;;;;-1.83;100.00;101521.63;5080221;28;20782;-73